sensor_id;sensor_type;location;lat;lon;timestamp;P1;durP1;ratioP1;P2;durP2;ratioP2
10281;SDS011;5186;59.472;18.048;2023-06-05T00:01:36;1.17;;;0.60;;
10281;SDS011;5186;59.472;18.048;2023-06-05T00:04:02;1.53;;;0.77;;
10281;SDS011;5186;59.472;18.048;2023-06-05T00:06:28;1.43;;;0.60;;
10281;SDS011;5186;59.472;18.048;2023-06-05T00:08:54;1.03;;;0.53;;
10281;SDS011;5186;59.472;18.048;2023-06-05T00:11:20;1.03;;;0.70;;
10281;SDS011;5186;59.472;18.048;2023-06-05T00:13:45;0.80;;;0.50;;
10281;SDS011;5186;59.472;18.048;2023-06-05T00:16:11;1.27;;;0.60;;
10281;SDS011;5186;59.472;18.048;2023-06-05T00:18:36;2.43;;;0.60;;
10281;SDS011;5186;59.472;18.048;2023-06-05T00:21:02;1.33;;;0.90;;
10281;SDS011;5186;59.472;18.048;2023-06-05T00:23:28;2.23;;;0.63;;
10281;SDS011;5186;59.472;18.048;2023-06-05T00:25:54;0.60;;;0.60;;
10281;SDS011;5186;59.472;18.048;2023-06-05T00:28:22;1.13;;;0.67;;
10281;SDS011;5186;59.472;18.048;2023-06-05T00:30:49;1.67;;;0.80;;
10281;SDS011;5186;59.472;18.048;2023-06-05T00:33:14;0.70;;;0.60;;
10281;SDS011;5186;59.472;18.048;2023-06-05T00:35:40;1.90;;;0.60;;
10281;SDS011;5186;59.472;18.048;2023-06-05T00:38:06;1.13;;;0.50;;
10281;SDS011;5186;59.472;18.048;2023-06-05T00:40:31;0.70;;;0.50;;
10281;SDS011;5186;59.472;18.048;2023-06-05T00:42:57;2.07;;;0.70;;
10281;SDS011;5186;59.472;18.048;2023-06-05T00:45:23;1.97;;;0.70;;
10281;SDS011;5186;59.472;18.048;2023-06-05T00:47:49;1.93;;;0.60;;
10281;SDS011;5186;59.472;18.048;2023-06-05T00:50:15;0.60;;;0.60;;
10281;SDS011;5186;59.472;18.048;2023-06-05T00:52:42;0.70;;;0.70;;
10281;SDS011;5186;59.472;18.048;2023-06-05T00:55:09;1.27;;;0.80;;
10281;SDS011;5186;59.472;18.048;2023-06-05T00:57:36;1.43;;;0.60;;
10281;SDS011;5186;59.472;18.048;2023-06-05T01:00:04;1.07;;;0.50;;
10281;SDS011;5186;59.472;18.048;2023-06-05T01:02:32;2.63;;;0.70;;
10281;SDS011;5186;59.472;18.048;2023-06-05T01:04:59;0.60;;;0.60;;
10281;SDS011;5186;59.472;18.048;2023-06-05T01:07:25;1.53;;;0.60;;
10281;SDS011;5186;59.472;18.048;2023-06-05T01:09:52;0.83;;;0.50;;
10281;SDS011;5186;59.472;18.048;2023-06-05T01:12:30;1.47;;;0.50;;
10281;SDS011;5186;59.472;18.048;2023-06-05T01:15:03;1.67;;;0.70;;
10281;SDS011;5186;59.472;18.048;2023-06-05T01:17:33;1.33;;;0.67;;
10281;SDS011;5186;59.472;18.048;2023-06-05T01:19:59;1.23;;;0.80;;
10281;SDS011;5186;59.472;18.048;2023-06-05T01:22:29;1.13;;;0.50;;
10281;SDS011;5186;59.472;18.048;2023-06-05T01:24:55;0.67;;;0.60;;
10281;SDS011;5186;59.472;18.048;2023-06-05T01:32:59;0.90;;;0.60;;
10281;SDS011;5186;59.472;18.048;2023-06-05T01:35:27;1.33;;;0.70;;
10281;SDS011;5186;59.472;18.048;2023-06-05T01:37:58;0.97;;;0.50;;
10281;SDS011;5186;59.472;18.048;2023-06-05T01:40:31;1.13;;;0.50;;
10281;SDS011;5186;59.472;18.048;2023-06-05T01:42:58;0.67;;;0.50;;
10281;SDS011;5186;59.472;18.048;2023-06-05T01:45:25;2.00;;;0.80;;
10281;SDS011;5186;59.472;18.048;2023-06-05T01:47:52;1.00;;;0.77;;
10281;SDS011;5186;59.472;18.048;2023-06-05T01:50:18;1.53;;;0.60;;
10281;SDS011;5186;59.472;18.048;2023-06-05T01:52:44;0.57;;;0.57;;
10281;SDS011;5186;59.472;18.048;2023-06-05T01:55:18;2.87;;;0.70;;
10281;SDS011;5186;59.472;18.048;2023-06-05T01:57:48;1.10;;;0.67;;
10281;SDS011;5186;59.472;18.048;2023-06-05T02:00:14;1.33;;;0.73;;
10281;SDS011;5186;59.472;18.048;2023-06-05T02:02:41;1.07;;;0.60;;
10281;SDS011;5186;59.472;18.048;2023-06-05T02:05:11;0.80;;;0.70;;
10281;SDS011;5186;59.472;18.048;2023-06-05T02:07:38;0.93;;;0.50;;
10281;SDS011;5186;59.472;18.048;2023-06-05T02:10:05;0.60;;;0.60;;
10281;SDS011;5186;59.472;18.048;2023-06-05T02:12:32;1.00;;;0.90;;
10281;SDS011;5186;59.472;18.048;2023-06-05T02:15:01;2.00;;;0.83;;
10281;SDS011;5186;59.472;18.048;2023-06-05T02:17:27;0.80;;;0.53;;
10281;SDS011;5186;59.472;18.048;2023-06-05T02:19:52;1.33;;;0.60;;
10281;SDS011;5186;59.472;18.048;2023-06-05T02:22:18;0.80;;;0.50;;
10281;SDS011;5186;59.472;18.048;2023-06-05T02:24:44;1.33;;;0.90;;
10281;SDS011;5186;59.472;18.048;2023-06-05T02:27:10;0.90;;;0.57;;
10281;SDS011;5186;59.472;18.048;2023-06-05T02:29:38;1.43;;;0.60;;
10281;SDS011;5186;59.472;18.048;2023-06-05T02:32:04;1.23;;;0.63;;
10281;SDS011;5186;59.472;18.048;2023-06-05T02:34:31;0.87;;;0.60;;
10281;SDS011;5186;59.472;18.048;2023-06-05T02:36:57;0.70;;;0.70;;
10281;SDS011;5186;59.472;18.048;2023-06-05T02:39:23;1.60;;;0.60;;
10281;SDS011;5186;59.472;18.048;2023-06-05T02:41:50;1.70;;;0.60;;
10281;SDS011;5186;59.472;18.048;2023-06-05T02:44:16;0.70;;;0.70;;
10281;SDS011;5186;59.472;18.048;2023-06-05T02:46:42;0.90;;;0.80;;
10281;SDS011;5186;59.472;18.048;2023-06-05T02:49:07;0.90;;;0.70;;
10281;SDS011;5186;59.472;18.048;2023-06-05T02:51:33;2.03;;;0.77;;
10281;SDS011;5186;59.472;18.048;2023-06-05T02:53:59;0.83;;;0.70;;
10281;SDS011;5186;59.472;18.048;2023-06-05T02:56:24;1.17;;;0.90;;
10281;SDS011;5186;59.472;18.048;2023-06-05T02:58:52;1.47;;;0.70;;
10281;SDS011;5186;59.472;18.048;2023-06-05T03:01:18;2.10;;;0.60;;
10281;SDS011;5186;59.472;18.048;2023-06-05T03:03:44;1.50;;;0.80;;
10281;SDS011;5186;59.472;18.048;2023-06-05T03:06:09;0.90;;;0.70;;
10281;SDS011;5186;59.472;18.048;2023-06-05T03:08:37;1.70;;;0.73;;
10281;SDS011;5186;59.472;18.048;2023-06-05T03:11:03;0.97;;;0.87;;
10281;SDS011;5186;59.472;18.048;2023-06-05T03:13:30;2.07;;;1.20;;
10281;SDS011;5186;59.472;18.048;2023-06-05T03:15:57;1.63;;;0.57;;
10281;SDS011;5186;59.472;18.048;2023-06-05T03:18:26;1.00;;;0.80;;
10281;SDS011;5186;59.472;18.048;2023-06-05T03:20:52;4.03;;;0.80;;
10281;SDS011;5186;59.472;18.048;2023-06-05T03:23:27;0.93;;;0.80;;
10281;SDS011;5186;59.472;18.048;2023-06-05T03:25:54;1.33;;;0.90;;
10281;SDS011;5186;59.472;18.048;2023-06-05T03:28:20;1.07;;;0.70;;
10281;SDS011;5186;59.472;18.048;2023-06-05T03:30:47;0.90;;;0.60;;
10281;SDS011;5186;59.472;18.048;2023-06-05T03:33:13;3.93;;;0.90;;
10281;SDS011;5186;59.472;18.048;2023-06-05T03:35:41;1.33;;;0.80;;
10281;SDS011;5186;59.472;18.048;2023-06-05T03:38:07;0.97;;;0.87;;
10281;SDS011;5186;59.472;18.048;2023-06-05T03:40:34;2.53;;;1.10;;
10281;SDS011;5186;59.472;18.048;2023-06-05T03:42:59;1.17;;;0.90;;
10281;SDS011;5186;59.472;18.048;2023-06-05T03:45:25;0.80;;;0.80;;
10281;SDS011;5186;59.472;18.048;2023-06-05T03:47:51;0.90;;;0.80;;
10281;SDS011;5186;59.472;18.048;2023-06-05T03:50:17;2.27;;;1.03;;
10281;SDS011;5186;59.472;18.048;2023-06-05T03:52:43;2.83;;;1.07;;
10281;SDS011;5186;59.472;18.048;2023-06-05T03:55:08;1.63;;;1.03;;
10281;SDS011;5186;59.472;18.048;2023-06-05T03:57:35;1.27;;;0.90;;
10281;SDS011;5186;59.472;18.048;2023-06-05T04:00:03;1.47;;;1.03;;
10281;SDS011;5186;59.472;18.048;2023-06-05T04:02:31;2.07;;;1.10;;
10281;SDS011;5186;59.472;18.048;2023-06-05T04:04:57;0.97;;;0.83;;
10281;SDS011;5186;59.472;18.048;2023-06-05T04:07:22;2.07;;;1.10;;
10281;SDS011;5186;59.472;18.048;2023-06-05T04:09:48;1.40;;;0.90;;
10281;SDS011;5186;59.472;18.048;2023-06-05T04:12:13;1.00;;;1.00;;
10281;SDS011;5186;59.472;18.048;2023-06-05T04:14:39;1.17;;;0.90;;
10281;SDS011;5186;59.472;18.048;2023-06-05T04:17:05;1.33;;;1.00;;
10281;SDS011;5186;59.472;18.048;2023-06-05T04:19:31;0.87;;;0.83;;
10281;SDS011;5186;59.472;18.048;2023-06-05T04:21:56;1.67;;;1.17;;
10281;SDS011;5186;59.472;18.048;2023-06-05T04:24:22;1.13;;;0.90;;
10281;SDS011;5186;59.472;18.048;2023-06-05T04:26:50;1.20;;;0.87;;
10281;SDS011;5186;59.472;18.048;2023-06-05T04:29:16;0.80;;;0.70;;
10281;SDS011;5186;59.472;18.048;2023-06-05T04:31:43;1.10;;;1.00;;
10281;SDS011;5186;59.472;18.048;2023-06-05T04:34:10;2.10;;;0.80;;
10281;SDS011;5186;59.472;18.048;2023-06-05T04:36:36;1.53;;;0.90;;
10281;SDS011;5186;59.472;18.048;2023-06-05T04:39:02;1.67;;;1.00;;
10281;SDS011;5186;59.472;18.048;2023-06-05T04:41:30;1.27;;;0.80;;
10281;SDS011;5186;59.472;18.048;2023-06-05T04:43:57;1.20;;;1.00;;
10281;SDS011;5186;59.472;18.048;2023-06-05T04:46:24;1.27;;;1.00;;
10281;SDS011;5186;59.472;18.048;2023-06-05T04:48:51;1.07;;;0.97;;
10281;SDS011;5186;59.472;18.048;2023-06-05T04:51:20;2.03;;;0.80;;
10281;SDS011;5186;59.472;18.048;2023-06-05T04:53:47;1.60;;;1.00;;
10281;SDS011;5186;59.472;18.048;2023-06-05T04:56:15;1.03;;;0.83;;
10281;SDS011;5186;59.472;18.048;2023-06-05T04:58:41;1.67;;;1.07;;
10281;SDS011;5186;59.472;18.048;2023-06-05T05:01:07;1.57;;;0.93;;
10281;SDS011;5186;59.472;18.048;2023-06-05T05:03:33;3.40;;;1.10;;
10281;SDS011;5186;59.472;18.048;2023-06-05T05:05:59;1.10;;;1.00;;
10281;SDS011;5186;59.472;18.048;2023-06-05T05:08:25;2.63;;;0.90;;
10281;SDS011;5186;59.472;18.048;2023-06-05T05:10:52;1.00;;;0.90;;
10281;SDS011;5186;59.472;18.048;2023-06-05T05:13:18;1.73;;;1.20;;
10281;SDS011;5186;59.472;18.048;2023-06-05T05:15:44;2.00;;;1.00;;
10281;SDS011;5186;59.472;18.048;2023-06-05T05:18:10;1.10;;;0.90;;
10281;SDS011;5186;59.472;18.048;2023-06-05T05:20:35;1.20;;;1.10;;
10281;SDS011;5186;59.472;18.048;2023-06-05T05:23:01;0.60;;;0.60;;
10281;SDS011;5186;59.472;18.048;2023-06-05T05:25:27;0.90;;;0.80;;
10281;SDS011;5186;59.472;18.048;2023-06-05T05:27:53;2.23;;;0.90;;
10281;SDS011;5186;59.472;18.048;2023-06-05T05:30:18;1.10;;;0.90;;
10281;SDS011;5186;59.472;18.048;2023-06-05T05:32:44;2.03;;;0.80;;
10281;SDS011;5186;59.472;18.048;2023-06-05T05:35:10;2.47;;;0.93;;
10281;SDS011;5186;59.472;18.048;2023-06-05T05:37:35;1.33;;;1.00;;
10281;SDS011;5186;59.472;18.048;2023-06-05T05:40:01;1.70;;;0.80;;
10281;SDS011;5186;59.472;18.048;2023-06-05T05:42:28;0.70;;;0.70;;
10281;SDS011;5186;59.472;18.048;2023-06-05T05:44:54;2.10;;;0.93;;
10281;SDS011;5186;59.472;18.048;2023-06-05T05:47:20;0.73;;;0.73;;
10281;SDS011;5186;59.472;18.048;2023-06-05T05:49:45;1.83;;;0.90;;
10281;SDS011;5186;59.472;18.048;2023-06-05T05:52:11;2.57;;;0.90;;
10281;SDS011;5186;59.472;18.048;2023-06-05T05:54:36;1.77;;;0.87;;
10281;SDS011;5186;59.472;18.048;2023-06-05T05:57:02;1.97;;;0.80;;
10281;SDS011;5186;59.472;18.048;2023-06-05T05:59:29;1.03;;;0.73;;
10281;SDS011;5186;59.472;18.048;2023-06-05T06:01:55;1.33;;;0.80;;
10281;SDS011;5186;59.472;18.048;2023-06-05T06:04:23;3.33;;;1.07;;
10281;SDS011;5186;59.472;18.048;2023-06-05T06:06:49;1.43;;;0.80;;
10281;SDS011;5186;59.472;18.048;2023-06-05T06:09:17;2.33;;;0.90;;
10281;SDS011;5186;59.472;18.048;2023-06-05T06:11:43;1.70;;;0.90;;
10281;SDS011;5186;59.472;18.048;2023-06-05T06:14:09;1.07;;;0.90;;
10281;SDS011;5186;59.472;18.048;2023-06-05T06:16:38;1.10;;;0.70;;
10281;SDS011;5186;59.472;18.048;2023-06-05T06:19:04;1.23;;;0.90;;
10281;SDS011;5186;59.472;18.048;2023-06-05T06:21:29;2.73;;;1.20;;
10281;SDS011;5186;59.472;18.048;2023-06-05T06:23:55;0.80;;;0.80;;
10281;SDS011;5186;59.472;18.048;2023-06-05T06:26:22;2.60;;;1.10;;
10281;SDS011;5186;59.472;18.048;2023-06-05T06:28:47;1.00;;;0.60;;
10281;SDS011;5186;59.472;18.048;2023-06-05T06:31:13;0.93;;;0.70;;
10281;SDS011;5186;59.472;18.048;2023-06-05T06:33:39;2.87;;;0.80;;
10281;SDS011;5186;59.472;18.048;2023-06-05T06:36:05;1.70;;;0.90;;
10281;SDS011;5186;59.472;18.048;2023-06-05T06:38:31;1.20;;;0.80;;
10281;SDS011;5186;59.472;18.048;2023-06-05T06:40:58;2.07;;;0.70;;
10281;SDS011;5186;59.472;18.048;2023-06-05T06:43:24;1.27;;;1.00;;
10281;SDS011;5186;59.472;18.048;2023-06-05T06:45:51;0.80;;;0.80;;
10281;SDS011;5186;59.472;18.048;2023-06-05T06:48:17;0.83;;;0.83;;
10281;SDS011;5186;59.472;18.048;2023-06-05T06:50:43;0.80;;;0.77;;
10281;SDS011;5186;59.472;18.048;2023-06-05T06:53:09;1.20;;;0.73;;
10281;SDS011;5186;59.472;18.048;2023-06-05T06:55:35;1.47;;;0.60;;
10281;SDS011;5186;59.472;18.048;2023-06-05T06:58:00;1.73;;;0.70;;
10281;SDS011;5186;59.472;18.048;2023-06-05T07:00:26;1.10;;;0.60;;
10281;SDS011;5186;59.472;18.048;2023-06-05T07:02:52;0.60;;;0.60;;
10281;SDS011;5186;59.472;18.048;2023-06-05T07:05:17;1.13;;;0.60;;
10281;SDS011;5186;59.472;18.048;2023-06-05T07:07:44;1.33;;;0.60;;
10281;SDS011;5186;59.472;18.048;2023-06-05T07:10:10;0.80;;;0.50;;
10281;SDS011;5186;59.472;18.048;2023-06-05T07:12:36;0.60;;;0.60;;
10281;SDS011;5186;59.472;18.048;2023-06-05T07:15:02;0.50;;;0.50;;
10281;SDS011;5186;59.472;18.048;2023-06-05T07:17:28;1.23;;;0.70;;
10281;SDS011;5186;59.472;18.048;2023-06-05T07:19:55;0.50;;;0.50;;
10281;SDS011;5186;59.472;18.048;2023-06-05T07:22:24;2.13;;;0.70;;
10281;SDS011;5186;59.472;18.048;2023-06-05T07:24:51;1.20;;;0.70;;
10281;SDS011;5186;59.472;18.048;2023-06-05T07:27:18;1.57;;;0.63;;
10281;SDS011;5186;59.472;18.048;2023-06-05T07:29:45;0.60;;;0.60;;
10281;SDS011;5186;59.472;18.048;2023-06-05T07:32:11;1.70;;;0.60;;
10281;SDS011;5186;59.472;18.048;2023-06-05T07:34:37;0.70;;;0.53;;
10281;SDS011;5186;59.472;18.048;2023-06-05T07:37:03;1.23;;;0.83;;
10281;SDS011;5186;59.472;18.048;2023-06-05T07:39:29;0.80;;;0.80;;
10281;SDS011;5186;59.472;18.048;2023-06-05T07:41:54;1.10;;;0.80;;
10281;SDS011;5186;59.472;18.048;2023-06-05T07:44:20;0.80;;;0.80;;
10281;SDS011;5186;59.472;18.048;2023-06-05T07:46:47;1.00;;;0.70;;
10281;SDS011;5186;59.472;18.048;2023-06-05T07:49:13;1.43;;;0.80;;
10281;SDS011;5186;59.472;18.048;2023-06-05T07:51:40;2.73;;;0.80;;
10281;SDS011;5186;59.472;18.048;2023-06-05T07:54:07;2.80;;;0.90;;
10281;SDS011;5186;59.472;18.048;2023-06-05T07:56:34;2.20;;;0.80;;
10281;SDS011;5186;59.472;18.048;2023-06-05T07:59:00;1.00;;;0.70;;
10281;SDS011;5186;59.472;18.048;2023-06-05T08:01:28;1.20;;;0.90;;
10281;SDS011;5186;59.472;18.048;2023-06-05T08:03:54;1.33;;;0.80;;
10281;SDS011;5186;59.472;18.048;2023-06-05T08:06:20;0.93;;;0.80;;
10281;SDS011;5186;59.472;18.048;2023-06-05T08:08:46;2.70;;;0.80;;
10281;SDS011;5186;59.472;18.048;2023-06-05T08:11:11;0.77;;;0.77;;
10281;SDS011;5186;59.472;18.048;2023-06-05T08:13:37;1.00;;;0.70;;
10281;SDS011;5186;59.472;18.048;2023-06-05T08:16:03;0.80;;;0.70;;
10281;SDS011;5186;59.472;18.048;2023-06-05T08:18:30;1.23;;;0.90;;
10281;SDS011;5186;59.472;18.048;2023-06-05T08:20:55;0.63;;;0.63;;
10281;SDS011;5186;59.472;18.048;2023-06-05T08:23:21;1.13;;;0.77;;
10281;SDS011;5186;59.472;18.048;2023-06-05T08:25:47;0.70;;;0.70;;
10281;SDS011;5186;59.472;18.048;2023-06-05T08:28:13;0.90;;;0.67;;
10281;SDS011;5186;59.472;18.048;2023-06-05T08:30:40;3.23;;;0.90;;
10281;SDS011;5186;59.472;18.048;2023-06-05T08:33:06;0.77;;;0.60;;
10281;SDS011;5186;59.472;18.048;2023-06-05T08:35:31;1.83;;;0.60;;
10281;SDS011;5186;59.472;18.048;2023-06-05T08:37:57;0.80;;;0.80;;
10281;SDS011;5186;59.472;18.048;2023-06-05T08:40:23;0.70;;;0.70;;
10281;SDS011;5186;59.472;18.048;2023-06-05T08:42:53;3.33;;;0.70;;
10281;SDS011;5186;59.472;18.048;2023-06-05T08:45:19;0.70;;;0.70;;
10281;SDS011;5186;59.472;18.048;2023-06-05T08:47:44;2.57;;;1.37;;
10281;SDS011;5186;59.472;18.048;2023-06-05T08:50:15;2.10;;;0.87;;
10281;SDS011;5186;59.472;18.048;2023-06-05T08:52:41;2.00;;;0.80;;
10281;SDS011;5186;59.472;18.048;2023-06-05T08:55:08;0.87;;;0.80;;
10281;SDS011;5186;59.472;18.048;2023-06-05T08:57:35;0.90;;;0.90;;
10281;SDS011;5186;59.472;18.048;2023-06-05T09:00:05;1.03;;;0.90;;
10281;SDS011;5186;59.472;18.048;2023-06-05T09:02:38;2.83;;;0.90;;
10281;SDS011;5186;59.472;18.048;2023-06-05T09:05:08;1.90;;;0.90;;
10281;SDS011;5186;59.472;18.048;2023-06-05T09:07:34;1.00;;;0.80;;
10281;SDS011;5186;59.472;18.048;2023-06-05T09:10:02;0.83;;;0.77;;
10281;SDS011;5186;59.472;18.048;2023-06-05T09:12:28;0.80;;;0.80;;
10281;SDS011;5186;59.472;18.048;2023-06-05T09:14:53;1.03;;;0.93;;
10281;SDS011;5186;59.472;18.048;2023-06-05T09:17:20;1.93;;;0.93;;
10281;SDS011;5186;59.472;18.048;2023-06-05T09:19:47;2.33;;;0.80;;
10281;SDS011;5186;59.472;18.048;2023-06-05T09:22:13;0.90;;;0.80;;
10281;SDS011;5186;59.472;18.048;2023-06-05T09:24:40;3.20;;;1.10;;
10281;SDS011;5186;59.472;18.048;2023-06-05T09:27:07;0.70;;;0.70;;
10281;SDS011;5186;59.472;18.048;2023-06-05T09:29:35;2.23;;;0.90;;
10281;SDS011;5186;59.472;18.048;2023-06-05T09:32:09;1.80;;;0.80;;
10281;SDS011;5186;59.472;18.048;2023-06-05T09:34:43;1.00;;;0.90;;
10281;SDS011;5186;59.472;18.048;2023-06-05T09:37:12;1.27;;;0.87;;
10281;SDS011;5186;59.472;18.048;2023-06-05T09:39:38;1.00;;;0.80;;
10281;SDS011;5186;59.472;18.048;2023-06-05T09:42:05;0.80;;;0.67;;
10281;SDS011;5186;59.472;18.048;2023-06-05T09:44:32;1.10;;;0.80;;
10281;SDS011;5186;59.472;18.048;2023-06-05T09:46:59;0.73;;;0.73;;
10281;SDS011;5186;59.472;18.048;2023-06-05T09:49:32;1.20;;;0.80;;
10281;SDS011;5186;59.472;18.048;2023-06-05T09:52:12;0.73;;;0.73;;
10281;SDS011;5186;59.472;18.048;2023-06-05T09:54:39;4.03;;;0.90;;
10281;SDS011;5186;59.472;18.048;2023-06-05T09:57:07;1.87;;;0.77;;
10281;SDS011;5186;59.472;18.048;2023-06-05T09:59:35;1.73;;;0.63;;
10281;SDS011;5186;59.472;18.048;2023-06-05T10:02:16;1.20;;;1.00;;
10281;SDS011;5186;59.472;18.048;2023-06-05T10:07:11;2.50;;;0.90;;
10281;SDS011;5186;59.472;18.048;2023-06-05T10:09:37;0.77;;;0.77;;
10281;SDS011;5186;59.472;18.048;2023-06-05T10:12:04;1.13;;;0.73;;
10281;SDS011;5186;59.472;18.048;2023-06-05T10:14:32;2.83;;;1.00;;
10281;SDS011;5186;59.472;18.048;2023-06-05T10:17:05;1.10;;;1.00;;
10281;SDS011;5186;59.472;18.048;2023-06-05T10:19:30;1.53;;;0.73;;
10281;SDS011;5186;59.472;18.048;2023-06-05T10:21:58;1.20;;;0.90;;
10281;SDS011;5186;59.472;18.048;2023-06-05T10:24:33;1.80;;;0.90;;
10281;SDS011;5186;59.472;18.048;2023-06-05T10:27:14;2.00;;;0.90;;
10281;SDS011;5186;59.472;18.048;2023-06-05T10:32:53;1.27;;;0.80;;
10281;SDS011;5186;59.472;18.048;2023-06-05T10:38:22;1.10;;;1.00;;
10281;SDS011;5186;59.472;18.048;2023-06-05T10:40:57;2.60;;;1.10;;
10281;SDS011;5186;59.472;18.048;2023-06-05T10:45:56;2.03;;;0.90;;
10281;SDS011;5186;59.472;18.048;2023-06-05T10:54:03;1.30;;;1.07;;
10281;SDS011;5186;59.472;18.048;2023-06-05T10:59:31;2.10;;;1.10;;
10281;SDS011;5186;59.472;18.048;2023-06-05T11:12:27;2.50;;;1.20;;
10281;SDS011;5186;59.472;18.048;2023-06-05T11:15:11;1.37;;;1.07;;
10281;SDS011;5186;59.472;18.048;2023-06-05T11:17:40;2.17;;;0.80;;
10281;SDS011;5186;59.472;18.048;2023-06-05T11:20:08;3.13;;;1.23;;
10281;SDS011;5186;59.472;18.048;2023-06-05T11:30:25;1.10;;;0.90;;
10281;SDS011;5186;59.472;18.048;2023-06-05T11:32:53;1.27;;;1.00;;
10281;SDS011;5186;59.472;18.048;2023-06-05T11:35:24;1.47;;;1.20;;
10281;SDS011;5186;59.472;18.048;2023-06-05T11:40:37;1.30;;;1.10;;
10281;SDS011;5186;59.472;18.048;2023-06-05T11:43:04;1.87;;;1.00;;
10281;SDS011;5186;59.472;18.048;2023-06-05T11:45:35;2.27;;;1.20;;
10281;SDS011;5186;59.472;18.048;2023-06-05T11:50:34;2.67;;;1.10;;
10281;SDS011;5186;59.472;18.048;2023-06-05T11:53:06;1.83;;;1.10;;
10281;SDS011;5186;59.472;18.048;2023-06-05T11:55:33;2.10;;;1.20;;
10281;SDS011;5186;59.472;18.048;2023-06-05T11:58:11;1.50;;;1.00;;
10281;SDS011;5186;59.472;18.048;2023-06-05T12:00:45;1.90;;;1.20;;
10281;SDS011;5186;59.472;18.048;2023-06-05T12:03:16;1.30;;;1.13;;
10281;SDS011;5186;59.472;18.048;2023-06-05T12:05:48;1.43;;;1.00;;
10281;SDS011;5186;59.472;18.048;2023-06-05T12:08:29;1.63;;;1.10;;
10281;SDS011;5186;59.472;18.048;2023-06-05T12:11:00;3.63;;;1.20;;
10281;SDS011;5186;59.472;18.048;2023-06-05T12:13:48;1.23;;;1.13;;
10281;SDS011;5186;59.472;18.048;2023-06-05T12:16:16;1.67;;;1.20;;
10281;SDS011;5186;59.472;18.048;2023-06-05T12:18:42;1.87;;;1.20;;
10281;SDS011;5186;59.472;18.048;2023-06-05T12:21:27;1.50;;;1.07;;
10281;SDS011;5186;59.472;18.048;2023-06-05T12:24:05;1.47;;;1.10;;
10281;SDS011;5186;59.472;18.048;2023-06-05T12:26:47;2.10;;;1.00;;
10281;SDS011;5186;59.472;18.048;2023-06-05T12:29:18;3.43;;;1.00;;
10281;SDS011;5186;59.472;18.048;2023-06-05T12:31:45;1.20;;;1.10;;
10281;SDS011;5186;59.472;18.048;2023-06-05T12:34:11;2.10;;;1.30;;
10281;SDS011;5186;59.472;18.048;2023-06-05T12:36:38;1.53;;;1.10;;
10281;SDS011;5186;59.472;18.048;2023-06-05T12:39:05;1.27;;;1.10;;
10281;SDS011;5186;59.472;18.048;2023-06-05T12:41:32;1.10;;;1.00;;
10281;SDS011;5186;59.472;18.048;2023-06-05T12:44:01;2.93;;;1.20;;
10281;SDS011;5186;59.472;18.048;2023-06-05T12:46:29;1.93;;;1.37;;
10281;SDS011;5186;59.472;18.048;2023-06-05T12:48:55;4.23;;;1.20;;
10281;SDS011;5186;59.472;18.048;2023-06-05T12:51:23;1.83;;;1.13;;
10281;SDS011;5186;59.472;18.048;2023-06-05T12:53:50;1.80;;;1.10;;
10281;SDS011;5186;59.472;18.048;2023-06-05T12:56:16;1.57;;;1.27;;
10281;SDS011;5186;59.472;18.048;2023-06-05T12:58:42;1.50;;;1.17;;
10281;SDS011;5186;59.472;18.048;2023-06-05T13:01:08;1.60;;;1.20;;
10281;SDS011;5186;59.472;18.048;2023-06-05T13:03:34;2.33;;;0.90;;
10281;SDS011;5186;59.472;18.048;2023-06-05T13:05:59;1.23;;;1.00;;
10281;SDS011;5186;59.472;18.048;2023-06-05T13:08:25;2.57;;;1.20;;
10281;SDS011;5186;59.472;18.048;2023-06-05T13:10:50;2.97;;;1.47;;
10281;SDS011;5186;59.472;18.048;2023-06-05T13:13:16;1.30;;;1.20;;
10281;SDS011;5186;59.472;18.048;2023-06-05T13:15:42;1.10;;;1.00;;
10281;SDS011;5186;59.472;18.048;2023-06-05T13:18:07;3.27;;;1.20;;
10281;SDS011;5186;59.472;18.048;2023-06-05T13:20:34;1.60;;;1.17;;
10281;SDS011;5186;59.472;18.048;2023-06-05T13:23:00;1.37;;;0.83;;
10281;SDS011;5186;59.472;18.048;2023-06-05T13:25:26;1.60;;;1.10;;
10281;SDS011;5186;59.472;18.048;2023-06-05T13:27:51;1.47;;;1.10;;
10281;SDS011;5186;59.472;18.048;2023-06-05T13:30:17;1.30;;;1.10;;
10281;SDS011;5186;59.472;18.048;2023-06-05T13:32:42;3.20;;;1.20;;
10281;SDS011;5186;59.472;18.048;2023-06-05T13:35:09;2.47;;;1.20;;
10281;SDS011;5186;59.472;18.048;2023-06-05T13:37:36;2.60;;;1.30;;
10281;SDS011;5186;59.472;18.048;2023-06-05T13:40:02;3.07;;;1.10;;
10281;SDS011;5186;59.472;18.048;2023-06-05T13:42:31;1.37;;;1.20;;
10281;SDS011;5186;59.472;18.048;2023-06-05T13:44:57;1.10;;;1.00;;
10281;SDS011;5186;59.472;18.048;2023-06-05T13:47:23;1.30;;;1.20;;
10281;SDS011;5186;59.472;18.048;2023-06-05T13:49:48;1.80;;;1.30;;
10281;SDS011;5186;59.472;18.048;2023-06-05T13:52:14;3.50;;;1.07;;
10281;SDS011;5186;59.472;18.048;2023-06-05T13:54:39;1.20;;;0.90;;
10281;SDS011;5186;59.472;18.048;2023-06-05T13:57:06;3.03;;;1.20;;
10281;SDS011;5186;59.472;18.048;2023-06-05T13:59:32;3.77;;;1.30;;
10281;SDS011;5186;59.472;18.048;2023-06-05T14:01:58;1.97;;;1.10;;
10281;SDS011;5186;59.472;18.048;2023-06-05T14:04:23;2.53;;;1.30;;
10281;SDS011;5186;59.472;18.048;2023-06-05T14:06:49;1.60;;;1.10;;
10281;SDS011;5186;59.472;18.048;2023-06-05T14:09:15;2.17;;;1.20;;
10281;SDS011;5186;59.472;18.048;2023-06-05T14:11:40;1.17;;;0.97;;
10281;SDS011;5186;59.472;18.048;2023-06-05T14:14:09;2.50;;;1.47;;
10281;SDS011;5186;59.472;18.048;2023-06-05T14:16:35;1.70;;;1.13;;
10281;SDS011;5186;59.472;18.048;2023-06-05T14:19:02;11.60;;;1.53;;
10281;SDS011;5186;59.472;18.048;2023-06-05T14:21:28;1.47;;;1.10;;
10281;SDS011;5186;59.472;18.048;2023-06-05T14:23:53;2.60;;;1.30;;
10281;SDS011;5186;59.472;18.048;2023-06-05T14:26:19;1.37;;;1.10;;
10281;SDS011;5186;59.472;18.048;2023-06-05T14:28:46;0.87;;;0.87;;
10281;SDS011;5186;59.472;18.048;2023-06-05T14:31:12;2.53;;;1.20;;
10281;SDS011;5186;59.472;18.048;2023-06-05T14:33:38;1.27;;;1.17;;
10281;SDS011;5186;59.472;18.048;2023-06-05T14:36:04;1.47;;;1.20;;
10281;SDS011;5186;59.472;18.048;2023-06-05T14:38:30;1.43;;;1.07;;
10281;SDS011;5186;59.472;18.048;2023-06-05T14:40:56;1.67;;;1.30;;
10281;SDS011;5186;59.472;18.048;2023-06-05T14:43:23;5.37;;;1.20;;
10281;SDS011;5186;59.472;18.048;2023-06-05T14:45:50;4.00;;;0.90;;
10281;SDS011;5186;59.472;18.048;2023-06-05T14:48:15;3.10;;;1.17;;
10281;SDS011;5186;59.472;18.048;2023-06-05T14:50:41;3.33;;;1.00;;
10281;SDS011;5186;59.472;18.048;2023-06-05T14:53:07;1.30;;;1.17;;
10281;SDS011;5186;59.472;18.048;2023-06-05T14:55:32;2.90;;;1.20;;
10281;SDS011;5186;59.472;18.048;2023-06-05T14:57:58;1.80;;;1.00;;
10281;SDS011;5186;59.472;18.048;2023-06-05T15:00:23;3.70;;;1.00;;
10281;SDS011;5186;59.472;18.048;2023-06-05T15:02:49;2.00;;;1.00;;
10281;SDS011;5186;59.472;18.048;2023-06-05T15:05:15;2.30;;;0.80;;
10281;SDS011;5186;59.472;18.048;2023-06-05T15:07:40;2.77;;;0.97;;
10281;SDS011;5186;59.472;18.048;2023-06-05T15:10:07;3.07;;;1.03;;
10281;SDS011;5186;59.472;18.048;2023-06-05T15:12:34;3.70;;;0.87;;
10281;SDS011;5186;59.472;18.048;2023-06-05T15:15:00;1.80;;;1.13;;
10281;SDS011;5186;59.472;18.048;2023-06-05T15:17:26;1.33;;;0.90;;
10281;SDS011;5186;59.472;18.048;2023-06-05T15:19:51;2.13;;;1.10;;
10281;SDS011;5186;59.472;18.048;2023-06-05T15:22:17;4.87;;;1.00;;
10281;SDS011;5186;59.472;18.048;2023-06-05T15:24:42;3.77;;;1.07;;
10281;SDS011;5186;59.472;18.048;2023-06-05T15:27:08;3.53;;;1.00;;
10281;SDS011;5186;59.472;18.048;2023-06-05T15:29:35;3.90;;;1.23;;
10281;SDS011;5186;59.472;18.048;2023-06-05T15:32:01;1.73;;;0.87;;
10281;SDS011;5186;59.472;18.048;2023-06-05T15:34:27;1.83;;;0.80;;
10281;SDS011;5186;59.472;18.048;2023-06-05T15:36:52;3.07;;;1.20;;